createdAt,value
2022-11-11T00:00:33.893Z,100463.41
2022-11-11T00:03:24.864Z,100464.72
2022-11-11T00:09:11.281Z,100456.50
2022-11-11T00:11:57.707Z,100461.88
2022-11-11T00:14:44.215Z,100467.94
2022-11-11T00:17:48.977Z,100465.06
2022-11-11T00:20:55.003Z,100472.13
2022-11-11T00:24:00.152Z,100474.00
2022-11-11T00:26:46.666Z,100471.97
2022-11-11T00:29:32.887Z,100470.81
2022-11-11T00:32:27.344Z,100466.25
2022-11-11T00:35:32.545Z,100465.22
2022-11-11T00:38:38.211Z,100483.25
2022-11-11T00:41:27.300Z,100482.56
2022-11-11T00:44:13.518Z,100475.50
2022-11-11T00:47:18.691Z,100467.94
2022-11-11T00:50:26.228Z,100456.13
2022-11-11T00:53:19.341Z,100466.91
2022-11-11T00:56:07.778Z,100471.47
2022-11-11T00:58:54.280Z,100456.13
2022-11-11T01:01:40.591Z,100461.38
2022-11-11T01:04:26.709Z,100478.16
2022-11-11T01:07:13.085Z,100483.56
2022-11-11T01:09:59.249Z,100474.66
2022-11-11T01:12:45.531Z,100477.19
2022-11-11T01:15:33.783Z,100488.94
2022-11-11T01:18:23.695Z,100473.47
2022-11-11T01:21:24.622Z,100479.19
2022-11-11T01:24:11.439Z,100488.59
2022-11-11T01:26:57.878Z,100477.84
2022-11-11T01:29:44.017Z,100476.50
2022-11-11T01:32:30.446Z,100474.78
2022-11-11T01:35:16.462Z,100460.34
2022-11-11T01:38:02.643Z,100462.53
2022-11-11T01:40:50.287Z,100449.72
2022-11-11T01:43:36.828Z,100460.69
2022-11-11T01:46:31.919Z,100473.31
2022-11-11T01:49:59.051Z,100478.03
2022-11-11T01:52:45.912Z,100478.50
2022-11-11T01:55:32.736Z,100459.84
2022-11-11T01:58:21.042Z,100462.34
2022-11-11T02:01:08.089Z,100470.97
2022-11-11T02:04:15.957Z,100466.06
2022-11-11T02:07:07.189Z,100487.28
2022-11-11T02:09:54.699Z,100483.91
2022-11-11T02:13:00.002Z,100475.84
2022-11-11T02:15:46.272Z,100477.50
2022-11-11T02:18:33.364Z,100483.41
2022-11-11T02:21:52.064Z,100486.25
2022-11-11T02:24:39.435Z,100497.72
2022-11-11T02:27:27.874Z,100475.00
2022-11-11T02:30:17.072Z,100485.59
2022-11-11T02:33:03.499Z,100492.00
2022-11-11T02:35:59.138Z,100485.28
2022-11-11T02:38:45.808Z,100488.63
2022-11-11T02:41:50.977Z,100475.00
2022-11-11T02:44:40.585Z,100480.38
2022-11-11T02:47:27.435Z,100488.63
2022-11-11T02:50:13.767Z,100491.97
2022-11-11T02:52:59.925Z,100512.53
2022-11-11T02:55:46.496Z,100499.72
2022-11-11T02:58:33.428Z,100491.00
2022-11-11T03:01:23.843Z,100452.97
2022-11-11T03:04:10.058Z,100442.56
2022-11-11T03:06:56.124Z,100455.00
2022-11-11T03:09:42.247Z,100465.59
2022-11-11T03:12:28.524Z,100486.25
2022-11-11T03:15:14.720Z,100471.81
2022-11-11T03:18:00.845Z,100483.25
2022-11-11T03:21:38.146Z,100478.69
2022-11-11T03:24:11.660Z,100490.97
2022-11-11T03:26:58.117Z,100468.44
2022-11-11T03:29:44.385Z,100462.38
2022-11-11T03:32:30.263Z,100461.56
2022-11-11T03:35:16.634Z,100455.16
2022-11-11T03:38:16.555Z,100452.13
2022-11-11T03:41:02.414Z,100461.03
2022-11-11T03:43:48.652Z,100493.19
2022-11-11T03:46:34.998Z,100479.22
2022-11-11T03:49:21.332Z,100488.63
2022-11-11T03:52:07.886Z,100486.28
2022-11-11T03:54:54.079Z,100474.34
2022-11-11T03:57:45.461Z,100481.19
2022-11-11T04:00:31.940Z,100464.41
2022-11-11T04:03:38.191Z,100479.38
2022-11-11T04:06:43.336Z,100477.19
2022-11-11T04:09:48.335Z,100457.84
2022-11-11T04:12:56.413Z,100486.09
2022-11-11T04:16:00.876Z,100468.09
2022-11-11T04:19:05.877Z,100469.75
2022-11-11T04:21:51.647Z,100458.16
2022-11-11T04:24:56.702Z,100457.50
2022-11-11T04:27:42.801Z,100449.25
2022-11-11T04:30:29.035Z,100437.78
2022-11-11T04:33:14.859Z,100436.63
2022-11-11T04:36:00.776Z,100456.97
2022-11-11T04:39:05.363Z,100442.34
2022-11-11T04:42:07.534Z,100445.03
2022-11-11T04:45:13.314Z,100428.22
2022-11-11T04:48:06.597Z,100431.09
2022-11-11T04:50:52.612Z,100458.34
2022-11-11T04:53:38.860Z,100472.78
2022-11-11T04:56:43.741Z,100482.22
2022-11-11T04:59:30.063Z,100502.94
2022-11-11T05:02:34.962Z,100492.31
2022-11-11T05:05:21.884Z,100494.31
2022-11-11T05:08:27.284Z,100497.69
2022-11-11T05:11:14.645Z,100492.47
2022-11-11T05:14:21.128Z,100514.19
2022-11-11T05:17:28.205Z,100522.28
2022-11-11T05:20:38.566Z,100504.41
2022-11-11T05:23:45.383Z,100511.50
2022-11-11T05:26:32.381Z,100526.97
2022-11-11T05:29:18.294Z,100524.09
2022-11-11T05:32:05.612Z,100533.19
2022-11-11T05:34:52.088Z,100532.34
2022-11-11T05:37:38.082Z,100541.13
2022-11-11T05:40:24.366Z,100550.03
2022-11-11T05:43:10.355Z,100557.59
2022-11-11T05:45:56.468Z,100562.81
2022-11-11T05:49:02.335Z,100573.25
2022-11-11T05:51:48.239Z,100561.78
2022-11-11T05:54:34.153Z,100558.09
2022-11-11T05:57:20.455Z,100575.94
2022-11-11T06:00:06.850Z,100569.53
2022-11-11T06:02:53.103Z,100583.00
2022-11-11T06:05:39.415Z,100584.69
2022-11-11T06:08:25.485Z,100565.84
2022-11-11T06:11:11.458Z,100556.94
2022-11-11T06:13:58.128Z,100557.09
2022-11-11T06:16:43.940Z,100564.31
2022-11-11T06:19:30.046Z,100559.09
2022-11-11T06:22:35.964Z,100566.19
2022-11-11T06:25:45.278Z,100541.75
2022-11-11T06:28:31.254Z,100556.25
2022-11-11T06:31:26.205Z,100559.97
2022-11-11T06:34:12.869Z,100543.47
2022-11-11T06:36:58.885Z,100554.91
2022-11-11T06:39:44.848Z,100568.34
2022-11-11T06:42:37.028Z,100580.81
2022-11-11T06:45:24.172Z,100592.59
2022-11-11T06:48:10.515Z,100586.03
2022-11-11T06:51:03.959Z,100578.78
2022-11-11T06:53:50.112Z,100587.19
2022-11-11T06:56:35.928Z,100587.53
2022-11-11T06:59:22.156Z,100595.63
2022-11-11T07:02:13.496Z,100595.47
2022-11-11T07:05:00.622Z,100591.59
2022-11-11T07:07:46.591Z,100589.41
2022-11-11T07:10:34.482Z,100592.41
2022-11-11T07:13:20.945Z,100577.09
2022-11-11T07:16:07.556Z,100575.09
2022-11-11T07:18:53.533Z,100588.56
2022-11-11T07:21:40.098Z,100576.94
2022-11-11T07:24:26.518Z,100576.44
2022-11-11T07:27:12.863Z,100583.00
2022-11-11T07:29:58.669Z,100596.63
2022-11-11T07:32:46.905Z,100608.72
2022-11-11T07:35:33.280Z,100612.59
2022-11-11T07:38:19.558Z,100616.50
2022-11-11T07:41:05.832Z,100610.41
2022-11-11T07:43:51.901Z,100616.13
2022-11-11T07:46:38.044Z,100618.81
2022-11-11T07:49:24.182Z,100632.59
2022-11-11T07:52:10.318Z,100620.00
2022-11-11T07:54:56.682Z,100627.41
2022-11-11T07:57:42.931Z,100631.09
2022-11-11T08:00:29.070Z,100630.09
2022-11-11T08:03:14.936Z,100650.59
2022-11-11T08:06:03.234Z,100631.41
2022-11-11T08:08:49.966Z,100629.41
2022-11-11T08:12:08.497Z,100663.38
2022-11-11T08:14:54.680Z,100663.38
2022-11-11T08:17:41.192Z,100674.13
2022-11-11T08:20:27.458Z,100680.72
2022-11-11T08:26:28.850Z,100676.00
2022-11-11T08:29:16.013Z,100677.72
2022-11-11T08:32:02.232Z,100689.16
2022-11-11T08:34:48.599Z,100684.13
2022-11-11T08:37:35.233Z,100709.72
2022-11-11T08:40:22.200Z,100707.56
2022-11-11T08:43:08.261Z,100708.38
2022-11-11T08:45:54.573Z,100720.03
2022-11-11T08:48:40.786Z,100721.53
2022-11-11T08:51:26.896Z,100723.56
2022-11-11T08:54:12.942Z,100713.13
2022-11-11T08:56:59.224Z,100719.53
2022-11-11T08:59:45.634Z,100740.22
2022-11-11T09:02:31.822Z,100730.78
2022-11-11T09:05:18.569Z,100713.97
2022-11-11T09:08:07.395Z,100720.88
2022-11-11T09:10:53.434Z,100720.22
2022-11-11T09:13:40.664Z,100729.16
2022-11-11T09:16:26.801Z,100708.09
2022-11-11T09:19:13.074Z,100732.50
2022-11-11T09:21:59.350Z,100721.53
2022-11-11T09:24:45.456Z,100718.16
2022-11-11T09:27:31.249Z,100729.47
2022-11-11T09:30:17.340Z,100742.13
2022-11-11T09:33:04.935Z,100724.75
2022-11-11T09:35:50.924Z,100736.22
2022-11-11T09:38:37.334Z,100737.75
2022-11-11T09:42:07.265Z,100739.56
2022-11-11T09:45:05.742Z,100744.97
2022-11-11T09:47:54.298Z,100739.91
2022-11-11T09:50:54.444Z,100766.03
2022-11-11T09:53:49.159Z,100767.00
2022-11-11T09:56:38.478Z,100741.06
2022-11-11T09:59:32.432Z,100755.41
2022-11-11T10:02:29.774Z,100734.31
2022-11-11T10:05:22.224Z,100744.75
2022-11-11T10:08:13.505Z,100741.91
2022-11-11T10:11:01.289Z,100740.84
2022-11-11T10:13:47.679Z,100790.56
2022-11-11T10:16:48.509Z,100741.25
2022-11-11T10:20:01.736Z,100745.75
2022-11-11T10:22:53.553Z,100760.50
2022-11-11T10:25:47.271Z,100782.72
2022-11-11T10:28:39.372Z,100759.84
2022-11-11T10:31:26.204Z,100756.63
2022-11-11T10:34:16.527Z,100746.00
2022-11-11T10:37:03.588Z,100753.38
2022-11-11T10:40:08.140Z,100739.47
2022-11-11T10:42:54.472Z,100753.53
2022-11-11T10:45:49.742Z,100769.34
2022-11-11T10:48:53.918Z,100754.69
2022-11-11T10:52:07.982Z,100759.13
2022-11-11T10:55:09.989Z,100765.69
2022-11-11T10:58:02.304Z,100762.03
2022-11-11T11:00:51.608Z,100768.50
2022-11-11T11:03:43.068Z,100747.66
2022-11-11T11:06:34.795Z,100732.34
2022-11-11T11:09:29.747Z,100741.22
2022-11-11T11:12:40.425Z,100766.78
2022-11-11T11:15:30.031Z,100780.97
2022-11-11T11:18:18.692Z,100773.66
2022-11-11T11:21:07.191Z,100750.44
2022-11-11T11:23:53.011Z,100767.91
2022-11-11T11:26:47.282Z,100799.25
2022-11-11T11:29:39.747Z,100750.47
2022-11-11T11:32:31.718Z,100745.22
2022-11-11T11:35:38.157Z,100758.91
2022-11-11T11:38:42.159Z,100758.69
2022-11-11T11:41:42.675Z,100764.66
2022-11-11T11:44:28.667Z,100743.66
2022-11-11T11:47:25.761Z,100741.72
2022-11-11T11:50:27.080Z,100750.94
2022-11-11T11:53:39.159Z,100742.66
2022-11-11T11:56:42.003Z,100760.88
2022-11-11T11:59:46.859Z,100754.81
2022-11-11T12:02:58.216Z,100765.03
2022-11-11T12:05:50.718Z,100738.22
2022-11-11T12:08:58.430Z,100741.94
2022-11-11T12:12:07.154Z,100763.81
2022-11-11T12:15:11.216Z,100773.09
2022-11-11T12:18:16.858Z,100773.63
2022-11-11T12:21:17.202Z,100780.03
2022-11-11T12:24:40.159Z,100783.28
2022-11-11T12:27:44.780Z,100798.13
2022-11-11T12:30:33.812Z,100778.97
2022-11-11T12:33:34.567Z,100799.91
2022-11-11T12:36:20.145Z,100811.56
2022-11-11T12:39:44.234Z,100788.13
2022-11-11T12:43:06.956Z,100796.22
2022-11-11T12:46:16.368Z,100780.84
2022-11-11T12:49:20.675Z,100799.56
2022-11-11T12:52:38.305Z,100819.00
2022-11-11T12:56:28.158Z,100815.97
2022-11-11T12:59:35.886Z,100822.56
2022-11-11T13:02:30.679Z,100820.03
2022-11-11T13:05:47.436Z,100822.72
2022-11-11T13:08:52.646Z,100820.88
2022-11-11T13:11:56.629Z,100821.03
2022-11-11T13:15:04.117Z,100836.06
2022-11-11T13:17:51.428Z,100846.53
2022-11-11T13:20:40.155Z,100808.59
2022-11-11T13:23:26.950Z,100845.84
2022-11-11T13:26:44.294Z,100848.25
2022-11-11T13:29:39.201Z,100845.19
2022-11-11T13:32:32.322Z,100847.06
2022-11-11T13:35:21.875Z,100838.47
2022-11-11T13:38:24.617Z,100840.13
2022-11-11T13:41:11.583Z,100840.81
2022-11-11T13:44:01.491Z,100832.38
2022-11-11T13:46:50.056Z,100839.97
2022-11-11T13:49:54.379Z,100847.09
2022-11-11T13:53:06.949Z,100849.44
2022-11-11T13:56:00.733Z,100848.22
2022-11-11T13:58:49.725Z,100845.88
2022-11-11T14:01:42.299Z,100847.22
2022-11-11T14:04:29.039Z,100840.09
2022-11-11T14:07:44.403Z,100859.00
2022-11-11T14:10:36.516Z,100826.25
2022-11-11T14:13:24.004Z,100833.09
2022-11-11T14:16:12.261Z,100838.22
2022-11-11T14:18:58.440Z,100841.75
2022-11-11T14:21:48.152Z,100835.47
2022-11-11T14:24:38.786Z,100833.31
2022-11-11T14:27:31.041Z,100830.81
2022-11-11T14:30:32.607Z,100847.03
2022-11-11T14:33:55.566Z,100853.78
2022-11-11T14:36:57.647Z,100870.31
2022-11-11T14:39:55.751Z,100839.13
2022-11-11T14:42:44.812Z,100828.31
2022-11-11T14:45:32.623Z,100834.22
2022-11-11T14:48:47.016Z,100862.72
2022-11-11T14:51:39.154Z,100845.53
2022-11-11T14:54:33.797Z,100843.69
2022-11-11T14:57:24.637Z,100858.19
2022-11-11T15:00:16.554Z,100846.91
2022-11-11T15:03:20.972Z,100876.25
2022-11-11T15:06:28.524Z,100874.22
2022-11-11T15:09:35.525Z,100876.44
2022-11-11T15:12:49.837Z,100856.03
2022-11-11T15:15:55.499Z,100880.13
2022-11-11T15:18:44.351Z,100883.16
2022-11-11T15:21:36.541Z,100884.00
2022-11-11T15:24:36.068Z,100910.97
2022-11-11T15:27:45.553Z,100903.06
2022-11-11T15:30:56.253Z,100892.47
2022-11-11T15:34:13.110Z,100910.16
2022-11-11T15:37:03.929Z,100902.53
2022-11-11T15:39:52.888Z,100907.09
2022-11-11T15:42:46.190Z,100920.44
2022-11-11T15:45:35.978Z,100934.09
2022-11-11T15:48:26.419Z,100956.00
2022-11-11T15:51:30.210Z,100964.09
2022-11-11T15:54:16.838Z,100970.69
2022-11-11T15:57:30.599Z,100986.88
2022-11-11T16:00:25.624Z,100985.50
2022-11-11T16:03:41.771Z,100993.56
2022-11-11T16:06:28.215Z,100988.69
2022-11-11T16:09:19.070Z,100987.84
2022-11-11T16:12:05.613Z,100994.75
2022-11-11T16:14:55.476Z,101012.28
2022-11-11T16:17:42.917Z,101015.44
2022-11-11T16:20:38.500Z,101009.72
2022-11-11T16:23:26.448Z,101018.97
2022-11-11T16:26:22.164Z,101026.22
2022-11-11T16:29:15.713Z,101019.34
2022-11-11T16:32:03.716Z,101050.81
2022-11-11T16:34:50.786Z,101046.28
2022-11-11T16:37:52.336Z,101053.84
2022-11-11T16:40:43.674Z,101065.50
2022-11-11T16:43:34.775Z,101056.84
2022-11-11T16:46:36.352Z,101072.38
2022-11-11T16:49:28.136Z,101086.69
2022-11-11T16:52:21.219Z,101082.97
2022-11-11T16:55:10.477Z,101086.00
2022-11-11T16:58:03.682Z,101121.56
2022-11-11T17:00:58.834Z,101090.91
2022-11-11T17:03:59.485Z,101120.91
2022-11-11T17:06:47.381Z,101104.72
2022-11-11T17:09:41.423Z,101139.28
2022-11-11T17:12:31.786Z,101133.03
2022-11-11T17:15:20.590Z,101163.72
2022-11-11T17:18:09.028Z,101181.06
2022-11-11T17:20:56.928Z,101192.84
2022-11-11T17:23:43.109Z,101212.69
2022-11-11T17:26:29.298Z,101252.59
2022-11-11T17:29:15.893Z,101257.75
2022-11-11T17:32:02.276Z,101261.84
2022-11-11T17:34:48.432Z,101292.47
2022-11-11T17:37:38.238Z,101298.84
2022-11-11T17:40:24.548Z,101309.53
2022-11-11T17:43:10.942Z,101324.41
2022-11-11T17:46:01.186Z,101323.69
2022-11-11T17:48:47.600Z,101323.84
2022-11-11T17:51:33.846Z,101324.00
2022-11-11T17:54:20.233Z,101333.75
2022-11-11T17:57:06.576Z,101348.06
2022-11-11T17:59:52.774Z,101351.59
2022-11-11T18:02:38.964Z,101368.56
2022-11-11T18:05:25.102Z,101379.91
2022-11-11T18:08:11.347Z,101391.53
2022-11-11T18:11:06.270Z,101406.81
2022-11-11T18:13:53.049Z,101414.31
2022-11-11T18:16:38.917Z,101428.22
2022-11-11T18:19:25.337Z,101439.25
2022-11-11T18:22:11.469Z,101439.53
2022-11-11T18:24:57.904Z,101449.59
2022-11-11T18:27:45.683Z,101460.50
2022-11-11T18:30:31.723Z,101468.56
2022-11-11T18:33:18.670Z,101472.38
2022-11-11T18:36:08.758Z,101483.44
2022-11-11T18:38:56.352Z,101494.47
2022-11-11T18:41:42.740Z,101510.19
2022-11-11T18:44:28.600Z,101513.28
2022-11-11T18:47:15.172Z,101525.03
2022-11-11T18:50:01.081Z,101527.16
2022-11-11T18:52:47.442Z,101522.91
2022-11-11T18:55:33.926Z,101528.72
2022-11-11T18:58:19.927Z,101536.31
2022-11-11T19:01:12.414Z,101544.94
2022-11-11T19:04:04.476Z,101550.00
2022-11-11T19:06:50.831Z,101557.66
2022-11-11T19:09:37.089Z,101573.31
2022-11-11T19:12:22.917Z,101573.13
2022-11-11T19:15:09.799Z,101571.50
2022-11-11T19:17:55.686Z,101581.63
2022-11-11T19:20:42.044Z,101586.06
2022-11-11T19:23:30.242Z,101591.53
2022-11-11T19:26:17.554Z,101603.56
2022-11-11T19:29:06.022Z,101602.66
2022-11-11T19:31:52.318Z,101613.06
2022-11-11T19:34:38.545Z,101612.72
2022-11-11T19:37:24.574Z,101634.69
2022-11-11T19:40:11.121Z,101632.41
2022-11-11T19:42:57.495Z,101641.81
2022-11-11T19:45:44.224Z,101646.69
2022-11-11T19:48:30.562Z,101651.44
2022-11-11T19:51:19.487Z,101664.25
2022-11-11T19:54:05.628Z,101670.88
2022-11-11T19:56:51.622Z,101669.41
2022-11-11T19:59:37.634Z,101677.56
2022-11-11T20:02:23.793Z,101681.34
2022-11-11T20:05:10.247Z,101690.28
2022-11-11T20:07:57.739Z,101702.69
2022-11-11T20:10:46.268Z,101707.91
2022-11-11T20:13:33.991Z,101700.38
2022-11-11T20:16:22.459Z,101692.94
2022-11-11T20:19:10.797Z,101699.88
2022-11-11T20:21:57.109Z,101692.69
2022-11-11T20:24:43.175Z,101698.03
2022-11-11T20:27:29.517Z,101711.69
2022-11-11T20:30:15.419Z,101713.03
2022-11-11T20:33:01.523Z,101701.84
2022-11-11T20:35:47.742Z,101699.66
2022-11-11T20:38:34.251Z,101707.56
2022-11-11T20:41:20.617Z,101721.69
2022-11-11T20:44:06.700Z,101725.09
2022-11-11T20:46:52.872Z,101740.81
2022-11-11T20:49:39.367Z,101751.03
2022-11-11T20:52:25.763Z,101756.03
2022-11-11T20:55:12.070Z,101760.03
2022-11-11T20:57:58.010Z,101776.56
2022-11-11T21:00:44.239Z,101779.72
2022-11-11T21:03:31.959Z,101784.47
2022-11-11T21:06:18.981Z,101784.81
2022-11-11T21:09:07.870Z,101789.44
2022-11-11T21:11:53.939Z,101790.41
2022-11-11T21:14:40.253Z,101793.31
2022-11-11T21:17:26.475Z,101805.09
2022-11-11T21:20:12.250Z,101806.09
2022-11-11T21:22:58.666Z,101813.38
2022-11-11T21:25:44.896Z,101823.22
2022-11-11T21:28:38.387Z,101820.78
2022-11-11T21:31:29.159Z,101836.94
2022-11-11T21:34:16.217Z,101840.59
2022-11-11T21:37:02.148Z,101854.13
2022-11-11T21:39:48.442Z,101863.94
2022-11-11T21:42:34.251Z,101872.09
2022-11-11T21:45:20.579Z,101880.38
2022-11-11T21:48:06.826Z,101877.06
2022-11-11T21:50:52.900Z,101884.47
2022-11-11T21:53:41.653Z,101878.34
2022-11-11T21:56:29.699Z,101883.84
2022-11-11T21:59:15.595Z,101882.31
2022-11-11T22:02:01.888Z,101889.09
2022-11-11T22:04:48.016Z,101884.19
2022-11-11T22:07:34.464Z,101886.22
2022-11-11T22:10:21.156Z,101894.47
2022-11-11T22:13:07.236Z,101891.28
2022-11-11T22:16:05.026Z,101892.34
2022-11-11T22:19:02.635Z,101896.75
2022-11-11T22:21:50.000Z,101893.13
2022-11-11T22:24:36.027Z,101899.31
2022-11-11T22:27:22.082Z,101903.06
2022-11-11T22:30:08.954Z,101907.78
2022-11-11T22:32:54.978Z,101915.06
2022-11-11T22:35:41.276Z,101917.81
2022-11-11T22:38:28.077Z,101922.31
2022-11-11T22:41:19.015Z,101925.94
2022-11-11T22:44:05.131Z,101919.22
2022-11-11T22:46:51.435Z,101923.03
2022-11-11T22:49:37.319Z,101923.25
2022-11-11T22:52:23.569Z,101920.91
2022-11-11T22:55:09.687Z,101915.03
2022-11-11T22:57:55.929Z,101924.22
2022-11-11T23:00:42.002Z,101924.56
2022-11-11T23:03:27.790Z,101924.88
2022-11-11T23:06:19.399Z,101943.91
2022-11-11T23:09:06.112Z,101946.16
2022-11-11T23:11:52.704Z,101959.81
2022-11-11T23:14:39.320Z,101967.94
2022-11-11T23:17:25.428Z,101978.00
2022-11-11T23:20:12.747Z,101985.44
2022-11-11T23:22:58.892Z,101983.94
2022-11-11T23:25:44.931Z,101987.66
2022-11-11T23:28:31.181Z,101999.34
2022-11-11T23:31:28.825Z,101991.63
2022-11-11T23:34:14.738Z,101992.69
2022-11-11T23:37:06.559Z,101993.63
2022-11-11T23:39:53.764Z,101997.19
2022-11-11T23:42:40.042Z,101989.81
2022-11-11T23:45:26.020Z,101993.03
2022-11-11T23:48:12.321Z,101989.09
2022-11-11T23:50:58.374Z,101993.91
2022-11-11T23:53:45.032Z,101999.59
2022-11-11T23:56:31.629Z,101992.69
2022-11-11T23:59:18.182Z,102010.00
